createdAt,value
2018-08-12T00:00:21.777Z,62.39
2018-08-12T00:00:52.901Z,62.43
2018-08-12T00:01:24.072Z,62.83
2018-08-12T00:01:55.251Z,61.98
2018-08-12T00:02:26.410Z,63.04
2018-08-12T00:02:57.572Z,62.51
2018-08-12T00:03:28.696Z,63.08
2018-08-12T00:03:59.869Z,62.98
2018-08-12T00:04:31.080Z,62.67
2018-08-12T00:05:02.284Z,62.06
2018-08-12T00:05:33.502Z,62.47
2018-08-12T00:06:04.668Z,62.42
2018-08-12T00:06:35.888Z,63.04
2018-08-12T00:07:07.007Z,63.25
2018-08-12T00:07:38.129Z,62.64
2018-08-12T00:08:09.238Z,62.22
2018-08-12T00:08:40.459Z,63.33
2018-08-12T00:09:11.575Z,63.43
2018-08-12T00:09:42.679Z,63.52
2018-08-12T00:10:14.663Z,62.91
2018-08-12T00:10:45.793Z,63.39
2018-08-12T00:11:16.911Z,62.37
2018-08-12T00:11:48.126Z,62.00
2018-08-12T00:12:19.359Z,62.40
2018-08-12T00:12:50.536Z,62.21
2018-08-12T00:13:21.762Z,62.71
2018-08-12T00:13:52.879Z,62.13
2018-08-12T00:14:24.040Z,62.73
2018-08-12T00:14:55.212Z,62.83
2018-08-12T00:15:26.424Z,62.59
2018-08-12T00:15:57.539Z,62.27
2018-08-12T00:16:28.649Z,62.90
2018-08-12T00:16:59.759Z,62.96
2018-08-12T00:17:30.924Z,62.37
2018-08-12T00:18:02.148Z,63.11
2018-08-12T00:18:33.277Z,63.26
2018-08-12T00:19:04.389Z,62.43
2018-08-12T00:19:35.554Z,62.78
2018-08-12T00:20:06.759Z,63.24
2018-08-12T00:20:37.906Z,62.83
2018-08-12T00:21:09.126Z,62.73
2018-08-12T00:21:40.303Z,62.65
2018-08-12T00:22:11.414Z,63.03
2018-08-12T00:22:42.625Z,62.90
2018-08-12T00:23:13.738Z,62.62
2018-08-12T00:23:44.902Z,62.52
2018-08-12T00:24:16.012Z,62.41
2018-08-12T00:24:47.117Z,62.39
2018-08-12T00:25:18.232Z,61.82
2018-08-12T00:25:49.372Z,62.44
2018-08-12T00:26:20.547Z,62.07
2018-08-12T00:26:51.708Z,62.65
2018-08-12T00:27:22.872Z,62.25
2018-08-12T00:27:53.984Z,62.60
2018-08-12T00:28:25.148Z,62.33
2018-08-12T00:28:56.269Z,63.12
2018-08-12T00:29:27.375Z,63.63
2018-08-12T00:29:58.585Z,63.87
2018-08-12T00:30:29.751Z,63.31
2018-08-12T00:31:00.914Z,63.91
2018-08-12T00:31:32.141Z,63.87
2018-08-12T00:32:03.263Z,63.84
2018-08-12T00:32:34.435Z,64.33
2018-08-12T00:33:05.609Z,64.37
2018-08-12T00:33:36.783Z,63.97
2018-08-12T00:34:07.904Z,64.29
2018-08-12T00:34:39.066Z,63.76
2018-08-12T00:35:10.231Z,64.44
2018-08-12T00:35:41.455Z,64.53
2018-08-12T00:36:12.568Z,64.10
2018-08-12T00:36:43.681Z,64.42
2018-08-12T00:37:14.797Z,65.05
2018-08-12T00:37:45.903Z,65.18
2018-08-12T00:38:17.079Z,64.56
2018-08-12T00:38:48.256Z,64.84
2018-08-12T00:39:19.429Z,65.14
2018-08-12T00:39:50.551Z,65.77
2018-08-12T00:40:21.651Z,65.63
2018-08-12T00:40:52.807Z,65.76
2018-08-12T00:41:23.989Z,66.50
2018-08-12T00:41:55.208Z,66.12
2018-08-12T00:42:26.397Z,66.08
2018-08-12T00:42:57.522Z,66.33
2018-08-12T00:43:28.756Z,66.50
2018-08-12T00:43:59.878Z,66.58
2018-08-12T00:44:31.037Z,67.29
2018-08-12T00:45:02.224Z,67.21
2018-08-12T00:45:33.444Z,67.63
2018-08-12T00:46:04.616Z,67.77
2018-08-12T00:46:35.788Z,67.99
2018-08-12T00:47:06.912Z,67.54
2018-08-12T00:47:38.028Z,67.90
2018-08-12T00:48:09.204Z,68.23
2018-08-12T00:48:40.382Z,67.86
2018-08-12T00:49:11.555Z,68.05
2018-08-12T00:49:42.744Z,67.87
2018-08-12T00:50:13.860Z,67.87
2018-08-12T00:50:44.971Z,68.53
2018-08-12T00:51:16.176Z,68.31
2018-08-12T00:51:47.287Z,67.85
2018-08-12T00:52:18.504Z,68.37
2018-08-12T00:52:49.777Z,67.69
2018-08-12T00:53:20.948Z,67.69
2018-08-12T00:53:52.069Z,67.71
2018-08-12T00:54:23.293Z,67.64
2018-08-12T00:54:54.471Z,67.40
2018-08-12T00:55:25.616Z,67.35
2018-08-12T00:55:56.790Z,67.23
2018-08-12T00:56:27.972Z,67.00
2018-08-12T00:56:59.125Z,67.06
2018-08-12T00:57:30.292Z,67.12
2018-08-12T00:58:01.431Z,67.85
2018-08-12T00:58:32.579Z,67.49
2018-08-12T00:59:03.753Z,67.92
2018-08-12T00:59:34.916Z,67.84
2018-08-12T01:00:06.085Z,68.39
2018-08-12T01:00:37.195Z,67.81
2018-08-12T01:01:08.306Z,68.41
2018-08-12T01:01:39.424Z,68.12
2018-08-12T01:02:10.549Z,67.91
2018-08-12T01:02:41.712Z,68.01
2018-08-12T01:03:12.924Z,68.24
2018-08-12T01:03:44.038Z,68.21
2018-08-12T01:04:15.164Z,68.66
2018-08-12T01:04:46.275Z,68.46
2018-08-12T01:05:17.396Z,68.44
2018-08-12T01:05:48.649Z,68.54
2018-08-12T01:06:19.839Z,69.01
2018-08-12T01:06:51.074Z,68.40
2018-08-12T01:07:22.282Z,68.77
2018-08-12T01:07:53.451Z,68.31
2018-08-12T01:08:24.684Z,67.68
2018-08-12T01:08:55.852Z,67.78
2018-08-12T01:09:27.064Z,67.78
2018-08-12T01:09:58.290Z,68.30
2018-08-12T01:10:29.452Z,68.16
2018-08-12T01:11:00.620Z,67.48
2018-08-12T01:11:31.805Z,68.25
2018-08-12T01:12:02.923Z,68.19
2018-08-12T01:12:34.104Z,67.89
2018-08-12T01:13:05.212Z,68.02
2018-08-12T01:13:36.434Z,68.01
2018-08-12T01:14:07.611Z,67.47
2018-08-12T01:14:38.730Z,67.87
2018-08-12T01:15:09.907Z,67.50
2018-08-12T01:15:41.077Z,67.67
2018-08-12T01:16:12.207Z,67.69
2018-08-12T01:16:43.370Z,67.92
2018-08-12T01:17:14.491Z,68.39
2018-08-12T01:17:45.660Z,68.05
2018-08-12T01:18:16.795Z,68.30
2018-08-12T01:18:47.907Z,68.23
2018-08-12T01:19:19.055Z,68.39
2018-08-12T01:19:50.172Z,69.30
2018-08-12T01:20:21.298Z,68.77
2018-08-12T01:20:52.415Z,68.90
2018-08-12T01:21:23.589Z,69.04
2018-08-12T01:21:54.703Z,69.53
2018-08-12T01:22:25.862Z,69.12
2018-08-12T01:22:57.049Z,69.33
2018-08-12T01:23:28.162Z,69.23
2018-08-12T01:23:59.284Z,69.62
2018-08-12T01:24:30.431Z,68.98
2018-08-12T01:25:01.544Z,68.98
2018-08-12T01:25:32.719Z,68.79
2018-08-12T01:26:03.881Z,68.79
2018-08-12T01:26:35.047Z,68.51
2018-08-12T01:27:06.163Z,68.33
2018-08-12T01:27:37.275Z,68.64
2018-08-12T01:28:08.394Z,67.81
2018-08-12T01:28:39.502Z,68.48
2018-08-12T01:29:10.616Z,68.03
2018-08-12T01:29:41.771Z,67.30
2018-08-12T01:30:12.951Z,67.75
2018-08-12T01:30:44.074Z,67.50
2018-08-12T01:31:15.186Z,67.61
2018-08-12T01:31:46.307Z,67.12
2018-08-12T01:32:17.476Z,67.50
2018-08-12T01:32:48.604Z,67.65
2018-08-12T01:33:19.721Z,67.26
2018-08-12T01:33:50.854Z,67.87
2018-08-12T01:34:22.004Z,67.92
2018-08-12T01:34:53.168Z,68.32
2018-08-12T01:35:24.342Z,68.23
2018-08-12T01:35:55.575Z,68.42
2018-08-12T01:36:26.738Z,67.82
2018-08-12T01:36:57.900Z,67.82
2018-08-12T01:37:29.076Z,68.30
2018-08-12T01:38:00.258Z,67.82
2018-08-12T01:38:31.513Z,67.79
2018-08-12T01:39:02.699Z,67.70
2018-08-12T01:39:33.925Z,67.68
2018-08-12T01:40:05.101Z,68.18
2018-08-12T01:40:36.273Z,68.16
2018-08-12T01:41:07.441Z,68.12
2018-08-12T01:41:38.625Z,67.79
2018-08-12T01:42:09.790Z,68.19
2018-08-12T01:42:40.915Z,67.98
2018-08-12T01:43:12.140Z,68.19
2018-08-12T01:43:43.299Z,67.83
2018-08-12T01:44:14.471Z,68.06
2018-08-12T01:44:45.647Z,68.54
2018-08-12T01:45:16.810Z,68.35
2018-08-12T01:45:47.934Z,68.59
2018-08-12T01:46:19.190Z,68.64
2018-08-12T01:46:50.352Z,68.73
2018-08-12T01:47:21.531Z,68.54
2018-08-12T01:47:52.692Z,68.67
2018-08-12T01:48:23.872Z,68.77
2018-08-12T01:48:54.998Z,68.74
2018-08-12T01:49:26.210Z,68.21
2018-08-12T01:49:57.397Z,68.23
2018-08-12T01:50:28.507Z,68.29
2018-08-12T01:50:59.615Z,68.53
2018-08-12T01:51:30.884Z,68.66
2018-08-12T01:52:02.061Z,69.00
2018-08-12T01:52:33.175Z,69.05
2018-08-12T01:53:04.285Z,69.32
2018-08-12T01:53:35.383Z,68.78
2018-08-12T01:54:06.545Z,68.95
2018-08-12T01:54:37.736Z,68.96
2018-08-12T01:55:08.892Z,68.88
2018-08-12T01:55:40.047Z,69.25
2018-08-12T01:56:11.160Z,69.61
2018-08-12T01:56:42.377Z,68.91
2018-08-12T01:57:13.552Z,69.41
2018-08-12T01:57:44.683Z,69.01
2018-08-12T01:58:15.793Z,69.33
2018-08-12T01:58:46.964Z,69.24
2018-08-12T01:59:18.089Z,69.52
2018-08-12T01:59:49.198Z,69.86
2018-08-12T02:00:20.364Z,69.60
2018-08-12T02:00:51.579Z,68.91
2018-08-12T02:01:22.754Z,69.30
2018-08-12T02:01:53.934Z,68.53
2018-08-12T02:02:25.117Z,68.86
2018-08-12T02:02:56.282Z,68.52
2018-08-12T02:03:27.455Z,69.23
2018-08-12T02:03:58.628Z,68.85
2018-08-12T02:04:29.849Z,69.10
2018-08-12T02:05:00.971Z,69.14
2018-08-12T02:05:32.133Z,68.38
2018-08-12T02:06:03.287Z,68.53
2018-08-12T02:06:34.397Z,69.27
2018-08-12T02:07:05.507Z,69.76
2018-08-12T02:07:36.670Z,69.58
2018-08-12T02:08:07.780Z,69.63
2018-08-12T02:08:38.950Z,69.91
2018-08-12T02:09:10.118Z,69.80
2018-08-12T02:09:41.238Z,69.58
2018-08-12T02:10:12.351Z,69.48
2018-08-12T02:10:43.524Z,69.36
2018-08-12T02:11:14.683Z,69.31
2018-08-12T02:11:45.788Z,69.52
2018-08-12T02:12:16.958Z,69.52
2018-08-12T02:12:48.188Z,69.77
2018-08-12T02:13:19.368Z,70.01
2018-08-12T02:13:50.483Z,69.91
2018-08-12T02:14:21.644Z,69.66
2018-08-12T02:14:52.764Z,69.26
2018-08-12T02:15:23.872Z,69.81
2018-08-12T02:15:54.998Z,69.86
2018-08-12T02:16:26.139Z,69.46
2018-08-12T02:16:57.414Z,69.48
2018-08-12T02:17:28.592Z,69.92
2018-08-12T02:17:59.800Z,69.14
2018-08-12T02:18:30.963Z,69.21
2018-08-12T02:19:02.133Z,69.20
2018-08-12T02:19:33.313Z,69.67
2018-08-12T02:20:04.474Z,69.58
2018-08-12T02:20:35.584Z,69.93
2018-08-12T02:21:06.695Z,69.84
2018-08-12T02:21:37.912Z,70.03
2018-08-12T02:22:09.083Z,70.07
2018-08-12T02:22:40.245Z,70.29
2018-08-12T02:23:11.476Z,70.18
2018-08-12T02:23:42.660Z,69.95
2018-08-12T02:24:13.793Z,70.59
2018-08-12T02:24:44.957Z,70.09
2018-08-12T02:25:16.144Z,70.25
2018-08-12T02:25:47.309Z,70.30
2018-08-12T02:26:18.423Z,70.79
2018-08-12T02:26:49.589Z,70.44
2018-08-12T02:27:20.751Z,70.73
2018-08-12T02:27:51.973Z,70.54
2018-08-12T02:28:23.204Z,71.14
2018-08-12T02:28:54.325Z,70.62
2018-08-12T02:29:25.486Z,70.41
2018-08-12T02:29:56.616Z,70.38
2018-08-12T02:30:27.848Z,70.64
2018-08-12T02:30:59.036Z,71.27
2018-08-12T02:31:30.157Z,71.24
2018-08-12T02:32:01.311Z,70.45
2018-08-12T02:32:32.512Z,71.17
2018-08-12T02:33:03.627Z,70.28
2018-08-12T02:33:34.730Z,70.25
2018-08-12T02:34:05.852Z,69.88
2018-08-12T02:34:37.084Z,69.72
2018-08-12T02:35:08.308Z,69.41
2018-08-12T02:35:39.537Z,69.20
2018-08-12T02:36:10.778Z,69.14
2018-08-12T02:36:41.949Z,69.41
2018-08-12T02:37:13.054Z,69.82
2018-08-12T02:37:44.262Z,69.11
2018-08-12T02:38:15.430Z,70.13
2018-08-12T02:38:46.600Z,69.67
2018-08-12T02:39:17.767Z,69.98
2018-08-12T02:39:48.936Z,70.32
2018-08-12T02:40:20.141Z,69.26
2018-08-12T02:40:51.255Z,69.36
2018-08-12T02:41:22.414Z,69.51
2018-08-12T02:41:53.592Z,69.70
2018-08-12T02:42:24.764Z,69.86
2018-08-12T02:42:55.941Z,70.10
2018-08-12T02:43:27.161Z,69.37
2018-08-12T02:43:58.332Z,70.06
2018-08-12T02:44:29.566Z,70.31
2018-08-12T02:45:00.795Z,69.78
2018-08-12T02:45:32.006Z,70.21
2018-08-12T02:46:03.181Z,70.19
2018-08-12T02:46:34.337Z,69.76
2018-08-12T02:47:05.508Z,71.05
2018-08-12T02:47:36.611Z,70.93
2018-08-12T02:48:07.783Z,69.32
2018-08-12T02:48:38.953Z,69.56
2018-08-12T02:49:10.124Z,69.41
2018-08-12T02:49:41.281Z,69.65
2018-08-12T02:50:12.518Z,70.07
2018-08-12T02:50:43.705Z,69.59
2018-08-12T02:51:14.826Z,70.03
2018-08-12T02:51:45.932Z,69.94
2018-08-12T02:52:17.035Z,69.92
2018-08-12T02:52:48.142Z,70.23
2018-08-12T02:53:19.400Z,69.58
2018-08-12T02:53:50.515Z,69.63
2018-08-12T02:54:21.620Z,70.03
2018-08-12T02:54:52.731Z,69.12
2018-08-12T02:55:23.953Z,69.72
2018-08-12T02:55:55.194Z,70.01
2018-08-12T02:56:26.434Z,69.61
2018-08-12T02:56:57.549Z,69.23
2018-08-12T02:57:28.696Z,69.64
2018-08-12T02:57:59.792Z,70.03
2018-08-12T02:58:31.009Z,69.64
2018-08-12T02:59:02.167Z,69.89
2018-08-12T02:59:33.341Z,69.63
2018-08-12T03:00:04.504Z,70.00
2018-08-12T03:00:35.664Z,70.19
2018-08-12T03:01:06.881Z,69.71
2018-08-12T03:01:38.059Z,69.38
2018-08-12T03:02:09.167Z,69.78
2018-08-12T03:02:40.326Z,69.63
2018-08-12T03:03:11.447Z,70.16
2018-08-12T03:03:42.551Z,69.53
2018-08-12T03:04:13.716Z,69.98
2018-08-12T03:04:44.858Z,69.37
2018-08-12T03:05:15.971Z,69.25
2018-08-12T03:05:47.132Z,69.52
2018-08-12T03:06:18.254Z,69.36
2018-08-12T03:06:49.361Z,69.92
2018-08-12T03:07:20.528Z,69.26
2018-08-12T03:07:51.639Z,69.87
2018-08-12T03:08:22.740Z,69.49
2018-08-12T03:08:53.844Z,69.68
2018-08-12T03:09:25.019Z,69.50
2018-08-12T03:09:56.227Z,69.52
2018-08-12T03:10:27.448Z,69.93
2018-08-12T03:10:58.555Z,70.24
2018-08-12T03:11:29.687Z,70.22
2018-08-12T03:12:00.792Z,70.18
2018-08-12T03:12:31.903Z,69.96
2018-08-12T03:13:03.005Z,70.19
2018-08-12T03:13:34.115Z,69.85
2018-08-12T03:14:05.276Z,70.00
2018-08-12T03:14:36.392Z,69.91
2018-08-12T03:15:07.499Z,69.93
2018-08-12T03:15:38.698Z,70.17
2018-08-12T03:16:09.808Z,70.02
2018-08-12T03:16:40.903Z,70.10
2018-08-12T03:17:12.068Z,69.32
2018-08-12T03:17:43.168Z,69.84
2018-08-12T03:18:14.332Z,69.34
2018-08-12T03:18:45.446Z,70.21
2018-08-12T03:19:16.652Z,70.13
2018-08-12T03:19:47.765Z,70.01
2018-08-12T03:20:18.936Z,69.95
2018-08-12T03:20:50.036Z,70.16
2018-08-12T03:21:21.260Z,70.03
2018-08-12T03:21:52.372Z,70.09
2018-08-12T03:22:23.495Z,70.48
2018-08-12T03:22:54.726Z,70.38
2018-08-12T03:23:25.888Z,70.80
2018-08-12T03:23:57.072Z,71.27
2018-08-12T03:24:28.225Z,70.26
2018-08-12T03:24:59.335Z,70.81
2018-08-12T03:25:30.495Z,70.51
2018-08-12T03:26:01.654Z,70.45
2018-08-12T03:26:32.771Z,70.00
2018-08-12T03:27:03.956Z,69.91
2018-08-12T03:27:35.068Z,69.58
2018-08-12T03:28:06.179Z,70.08
2018-08-12T03:28:37.353Z,69.71
2018-08-12T03:29:08.510Z,69.89
2018-08-12T03:29:39.625Z,69.59
2018-08-12T03:30:10.934Z,69.77
2018-08-12T03:30:41.925Z,70.22
2018-08-12T03:31:13.085Z,70.03
2018-08-12T03:31:44.269Z,70.05
2018-08-12T03:32:15.421Z,70.00
2018-08-12T03:32:46.546Z,69.53
2018-08-12T03:33:17.656Z,69.57
2018-08-12T03:33:48.763Z,70.00
2018-08-12T03:34:19.988Z,69.57
2018-08-12T03:34:51.091Z,69.86
2018-08-12T03:35:22.196Z,69.96
2018-08-12T03:35:53.419Z,69.71
2018-08-12T03:36:24.588Z,70.13
2018-08-12T03:36:55.743Z,70.48
2018-08-12T03:37:26.859Z,70.21
2018-08-12T03:37:58.017Z,70.18
2018-08-12T03:38:29.133Z,69.48
2018-08-12T03:39:00.298Z,68.75
2018-08-12T03:39:31.522Z,68.47
2018-08-12T03:40:02.643Z,68.18
2018-08-12T03:40:33.744Z,68.58
2018-08-12T03:41:04.868Z,68.94
2018-08-12T03:41:35.976Z,67.70
2018-08-12T03:42:07.147Z,67.20
2018-08-12T03:42:38.326Z,67.19
2018-08-12T03:43:09.545Z,67.06
2018-08-12T03:43:40.661Z,66.71
2018-08-12T03:44:11.773Z,65.76
2018-08-12T03:44:42.991Z,65.95
2018-08-12T03:45:14.112Z,65.90
2018-08-12T03:45:45.332Z,65.03
2018-08-12T03:46:16.447Z,64.55
2018-08-12T03:46:47.668Z,64.42
2018-08-12T03:47:18.896Z,64.59
2018-08-12T03:47:50.065Z,63.97
2018-08-12T03:48:21.179Z,64.39
2018-08-12T03:48:52.323Z,64.00
2018-08-12T03:49:23.416Z,63.68
2018-08-12T03:49:54.680Z,62.78
2018-08-12T03:50:25.848Z,62.62
2018-08-12T03:50:57.118Z,62.23
2018-08-12T03:51:28.235Z,61.91
2018-08-12T03:51:59.403Z,61.27
2018-08-12T03:52:30.584Z,60.96
2018-08-12T03:53:01.775Z,61.59
2018-08-12T03:53:32.881Z,61.84
2018-08-12T03:54:03.995Z,60.74
2018-08-12T03:54:35.109Z,60.57
2018-08-12T03:55:06.231Z,59.97
2018-08-12T03:55:37.503Z,59.59
2018-08-12T03:56:08.620Z,59.15
2018-08-12T03:56:39.736Z,58.94
2018-08-12T03:57:10.966Z,59.31
2018-08-12T03:57:42.146Z,58.85
2018-08-12T03:58:13.330Z,58.13
2018-08-12T03:58:44.507Z,58.40
2018-08-12T03:59:15.615Z,57.84
2018-08-12T03:59:46.790Z,58.25
2018-08-12T04:00:17.957Z,56.54
2018-08-12T04:00:49.177Z,56.27
2018-08-12T04:01:20.299Z,56.89
2018-08-12T04:01:51.467Z,56.43
2018-08-12T04:02:22.661Z,56.09
2018-08-12T04:02:53.787Z,55.12
2018-08-12T04:03:24.957Z,54.76
2018-08-12T04:03:56.184Z,54.37
2018-08-12T04:04:27.422Z,54.54
2018-08-12T04:04:58.606Z,54.86
2018-08-12T04:05:29.725Z,55.09
2018-08-12T04:06:00.881Z,54.85
2018-08-12T04:06:32.055Z,53.84
2018-08-12T04:07:03.180Z,54.41
2018-08-12T04:07:34.344Z,54.23
2018-08-12T04:08:05.510Z,54.71
2018-08-12T04:08:36.640Z,53.72
2018-08-12T04:09:07.821Z,54.38
2018-08-12T04:09:38.939Z,53.85
2018-08-12T04:10:10.116Z,53.96
2018-08-12T04:10:41.224Z,53.63
2018-08-12T04:11:12.442Z,53.48
2018-08-12T04:11:43.623Z,53.78
2018-08-12T04:12:14.799Z,53.91
2018-08-12T04:12:46.027Z,53.55
2018-08-12T04:13:17.192Z,53.68
2018-08-12T04:13:48.300Z,54.31
2018-08-12T04:14:19.457Z,55.24
2018-08-12T04:14:50.632Z,55.09
2018-08-12T04:15:21.754Z,56.05
2018-08-12T04:15:52.921Z,55.32
2018-08-12T04:16:24.094Z,55.60
2018-08-12T04:16:55.333Z,55.10
2018-08-12T04:17:26.450Z,54.75
2018-08-12T04:17:57.599Z,54.77
2018-08-12T04:18:28.709Z,54.75
2018-08-12T04:18:59.905Z,53.79
2018-08-12T04:19:31.084Z,53.25
2018-08-12T04:20:02.362Z,53.08
2018-08-12T04:20:33.541Z,53.13
2018-08-12T04:21:04.788Z,53.33
2018-08-12T04:21:35.964Z,52.56
2018-08-12T04:22:07.070Z,52.89
2018-08-12T04:22:38.277Z,53.37
2018-08-12T04:23:09.457Z,53.67
2018-08-12T04:23:40.620Z,54.35
2018-08-12T04:24:11.732Z,54.21
2018-08-12T04:24:42.879Z,55.06
2018-08-12T04:25:14.048Z,55.21
2018-08-12T04:25:45.167Z,55.07
2018-08-12T04:26:16.283Z,54.04
2018-08-12T04:27:18.372Z,53.10
2018-08-12T04:27:49.544Z,51.86
2018-08-12T04:28:20.779Z,51.25
2018-08-12T04:28:51.976Z,50.65
2018-08-12T04:29:23.145Z,49.38
2018-08-12T04:29:54.336Z,49.47
2018-08-12T04:30:25.525Z,49.29
2018-08-12T04:30:56.710Z,48.82
2018-08-12T04:31:27.872Z,47.74
2018-08-12T04:31:58.995Z,47.56
2018-08-12T04:32:30.160Z,46.93
2018-08-12T04:33:01.328Z,46.64
2018-08-12T04:33:32.453Z,47.24
2018-08-12T04:34:03.559Z,46.02
2018-08-12T04:34:34.667Z,46.38
2018-08-12T04:35:05.880Z,45.65
2018-08-12T04:35:37.049Z,45.09
2018-08-12T04:36:08.151Z,44.81
2018-08-12T04:36:39.310Z,45.19
2018-08-12T04:37:10.536Z,44.84
2018-08-12T04:37:41.718Z,44.34
2018-08-12T04:38:12.879Z,44.28
2018-08-12T04:38:44.040Z,44.11
2018-08-12T04:39:15.153Z,43.77
2018-08-12T04:39:46.320Z,42.77
2018-08-12T04:40:17.500Z,42.91
2018-08-12T04:40:48.611Z,41.86
2018-08-12T04:41:19.777Z,43.07
2018-08-12T04:41:50.957Z,42.58
2018-08-12T04:42:22.117Z,42.04
2018-08-12T04:42:53.295Z,42.34
2018-08-12T04:43:24.477Z,42.28
2018-08-12T04:43:55.648Z,41.55
2018-08-12T04:44:26.874Z,40.86
2018-08-12T04:44:57.991Z,41.30
2018-08-12T04:45:29.151Z,40.63
2018-08-12T04:46:00.361Z,40.61
2018-08-12T04:46:31.484Z,41.06
2018-08-12T04:47:02.657Z,40.41
2018-08-12T04:47:33.836Z,39.81
2018-08-12T04:48:04.960Z,40.93
2018-08-12T04:48:36.133Z,40.76
2018-08-12T04:49:07.333Z,40.92
2018-08-12T04:49:38.512Z,40.63
2018-08-12T04:50:09.643Z,39.10
2018-08-12T04:50:40.759Z,39.01
2018-08-12T04:51:11.929Z,38.93
2018-08-12T04:51:43.105Z,39.35
2018-08-12T04:52:14.290Z,38.58
2018-08-12T04:52:45.464Z,38.07
2018-08-12T04:53:16.684Z,38.09
2018-08-12T04:53:47.921Z,38.04
2018-08-12T04:54:19.035Z,37.38
2018-08-12T04:54:50.218Z,38.85
2018-08-12T04:55:21.389Z,37.88
2018-08-12T04:55:52.516Z,38.84
2018-08-12T04:56:23.696Z,38.57
2018-08-12T04:56:54.807Z,38.79
2018-08-12T04:57:25.927Z,38.10
2018-08-12T04:57:57.104Z,37.13
2018-08-12T04:58:28.286Z,37.50
2018-08-12T04:58:59.574Z,37.24
2018-08-12T04:59:30.748Z,37.41
2018-08-12T05:00:01.935Z,37.10
2018-08-12T05:00:33.104Z,36.89
2018-08-12T05:01:04.342Z,36.66
2018-08-12T05:01:35.470Z,36.17
2018-08-12T05:02:06.592Z,36.38
2018-08-12T05:02:37.763Z,35.69
2018-08-12T05:03:09.011Z,35.57
2018-08-12T05:03:40.132Z,36.23
2018-08-12T05:04:11.351Z,36.13
2018-08-12T05:04:42.532Z,36.15
2018-08-12T05:05:13.659Z,36.01
2018-08-12T05:05:44.787Z,35.92
2018-08-12T05:06:15.964Z,35.64
2018-08-12T05:06:47.148Z,35.90
2018-08-12T05:07:18.267Z,35.82
2018-08-12T05:07:49.388Z,35.36
2018-08-12T05:08:20.575Z,35.40
2018-08-12T05:08:51.697Z,35.57
2018-08-12T05:09:22.912Z,35.51
2018-08-12T05:09:54.136Z,34.73
2018-08-12T05:10:25.256Z,34.77
2018-08-12T05:10:56.436Z,35.14
2018-08-12T05:11:27.599Z,35.07
2018-08-12T05:11:58.715Z,35.18
2018-08-12T05:12:29.840Z,34.77
2018-08-12T05:13:01.005Z,34.63
2018-08-12T05:13:32.119Z,34.63
2018-08-12T05:14:03.288Z,34.61
2018-08-12T05:14:34.440Z,34.57
2018-08-12T05:15:05.620Z,33.53
2018-08-12T05:15:36.776Z,34.48
2018-08-12T05:16:07.888Z,34.00
2018-08-12T05:16:39.001Z,33.60
2018-08-12T05:17:10.113Z,33.09
2018-08-12T05:17:41.259Z,33.38
2018-08-12T05:18:12.425Z,33.44
2018-08-12T05:18:43.588Z,33.42
2018-08-12T05:19:14.703Z,33.81
2018-08-12T05:19:45.812Z,33.83
2018-08-12T05:20:16.925Z,34.41
2018-08-12T05:20:48.036Z,34.21
2018-08-12T05:21:19.200Z,34.74
2018-08-12T05:21:50.312Z,34.85
2018-08-12T05:22:21.528Z,34.53
2018-08-12T05:22:52.743Z,34.95
2018-08-12T05:23:23.857Z,34.67
2018-08-12T05:23:55.014Z,34.44
2018-08-12T05:24:26.188Z,34.39
2018-08-12T05:24:57.318Z,34.32
2018-08-12T05:25:28.504Z,34.57
2018-08-12T05:25:59.770Z,34.51
2018-08-12T05:26:30.960Z,34.54
2018-08-12T05:27:02.279Z,34.60
2018-08-12T05:27:33.475Z,34.71
2018-08-12T05:28:04.688Z,34.33
2018-08-12T05:28:35.890Z,34.23
2018-08-12T05:29:07.080Z,33.57
2018-08-12T05:29:38.304Z,34.07
2018-08-12T05:30:09.449Z,33.98
2018-08-12T05:30:40.740Z,34.15
2018-08-12T05:31:12.069Z,34.68
2018-08-12T05:31:43.248Z,34.72
2018-08-12T05:32:14.992Z,34.53
2018-08-12T05:32:46.200Z,34.93
2018-08-12T05:33:18.409Z,34.79
2018-08-12T05:33:49.613Z,34.72
2018-08-12T05:34:20.782Z,34.64
2018-08-12T05:34:52.020Z,34.85
2018-08-12T05:35:23.166Z,34.30
2018-08-12T05:35:54.351Z,34.57
2018-08-12T05:36:25.482Z,34.56
2018-08-12T05:36:56.644Z,34.24
2018-08-12T05:37:27.908Z,35.20
2018-08-12T05:37:59.136Z,35.26
2018-08-12T05:38:30.259Z,35.62
2018-08-12T05:39:01.373Z,36.24
2018-08-12T05:39:32.503Z,36.80
2018-08-12T05:40:03.614Z,36.79
2018-08-12T05:40:34.785Z,36.29
2018-08-12T05:41:05.891Z,37.00
2018-08-12T05:41:37.114Z,36.90
2018-08-12T05:42:08.244Z,37.36
2018-08-12T05:42:39.391Z,38.24
2018-08-12T05:43:10.572Z,38.59
2018-08-12T05:43:41.687Z,38.61
2018-08-12T05:44:12.890Z,38.38
2018-08-12T05:44:44.024Z,38.74
2018-08-12T05:45:15.199Z,38.84
2018-08-12T05:45:46.385Z,38.59
2018-08-12T05:46:17.552Z,39.05
2018-08-12T05:46:48.669Z,39.12
2018-08-12T05:47:19.793Z,39.26
2018-08-12T05:47:50.963Z,39.19
2018-08-12T05:48:22.092Z,39.73
2018-08-12T05:48:53.203Z,40.42
2018-08-12T05:49:24.311Z,41.41
2018-08-12T05:49:55.428Z,40.94
2018-08-12T05:50:26.595Z,41.26
2018-08-12T05:50:57.752Z,40.69
2018-08-12T05:51:28.919Z,40.90
2018-08-12T05:52:00.061Z,41.32
2018-08-12T05:52:31.952Z,41.22
2018-08-12T05:53:03.216Z,41.36
2018-08-12T05:53:34.466Z,41.66
2018-08-12T05:54:05.595Z,42.07
2018-08-12T05:54:36.721Z,42.10
2018-08-12T05:55:07.849Z,41.90
2018-08-12T05:55:38.964Z,41.64
2018-08-12T05:56:10.147Z,42.25
2018-08-12T05:56:41.321Z,43.18
2018-08-12T05:57:12.482Z,43.48
2018-08-12T05:57:43.669Z,42.80
2018-08-12T05:58:14.872Z,42.93
2018-08-12T05:58:46.023Z,43.10
2018-08-12T05:59:17.149Z,43.07
2018-08-12T05:59:48.321Z,43.23
2018-08-12T06:00:19.436Z,43.60
2018-08-12T06:00:50.676Z,43.35
2018-08-12T06:01:21.857Z,42.89
2018-08-12T06:01:52.978Z,42.98
2018-08-12T06:02:24.155Z,41.75
2018-08-12T06:02:55.424Z,42.95
2018-08-12T06:03:26.589Z,43.30
2018-08-12T06:03:57.838Z,43.57
2018-08-12T06:04:28.971Z,43.51
2018-08-12T06:05:00.143Z,43.61
2018-08-12T06:05:31.298Z,43.42
2018-08-12T06:06:02.429Z,43.52
2018-08-12T06:06:33.599Z,43.28
2018-08-12T06:07:04.719Z,43.32
2018-08-12T06:07:35.848Z,43.22
2018-08-12T06:08:07.025Z,42.94
2018-08-12T06:08:38.232Z,42.57
2018-08-12T06:09:09.537Z,42.81
2018-08-12T06:09:40.724Z,42.98
2018-08-12T06:10:11.848Z,43.50
2018-08-12T06:10:43.077Z,43.53
2018-08-12T06:11:14.206Z,43.68
2018-08-12T06:11:45.437Z,43.40
2018-08-12T06:12:16.678Z,43.58
2018-08-12T06:12:47.887Z,43.19
2018-08-12T06:13:19.004Z,42.94
2018-08-12T06:13:50.192Z,42.82
2018-08-12T06:14:21.365Z,42.64
2018-08-12T06:14:52.519Z,42.86
2018-08-12T06:15:23.642Z,42.82
2018-08-12T06:15:54.879Z,42.72
2018-08-12T06:16:26.078Z,42.77
2018-08-12T06:16:57.318Z,43.23
2018-08-12T06:17:28.453Z,43.08
2018-08-12T06:17:59.649Z,42.99
2018-08-12T06:18:30.770Z,43.13
2018-08-12T06:19:01.950Z,43.20
2018-08-12T06:19:33.104Z,42.44
2018-08-12T06:20:04.249Z,43.49
2018-08-12T06:20:35.370Z,43.20
2018-08-12T06:21:06.495Z,43.38
2018-08-12T06:21:37.625Z,43.18
2018-08-12T06:22:08.815Z,43.62
2018-08-12T06:22:40.007Z,43.74
2018-08-12T06:23:11.188Z,44.04
2018-08-12T06:23:42.316Z,44.13
2018-08-12T06:24:13.550Z,44.18
2018-08-12T06:24:44.777Z,44.07
2018-08-12T06:25:15.976Z,44.04
2018-08-12T06:25:47.176Z,44.99
2018-08-12T06:26:18.438Z,45.06
2018-08-12T06:26:49.568Z,45.08
2018-08-12T06:27:20.692Z,45.47
2018-08-12T06:27:51.873Z,45.14
2018-08-12T06:28:23.023Z,44.51
2018-08-12T06:28:54.159Z,44.88
2018-08-12T06:29:25.280Z,44.55
2018-08-12T06:29:56.453Z,44.27
2018-08-12T06:30:27.570Z,44.66
2018-08-12T06:30:58.762Z,44.80
2018-08-12T06:31:29.986Z,44.92
2018-08-12T06:32:01.148Z,44.98
2018-08-12T06:32:32.314Z,44.51
2018-08-12T06:33:03.432Z,44.25
2018-08-12T06:33:34.612Z,44.50
2018-08-12T06:34:05.739Z,44.53
2018-08-12T06:34:36.913Z,43.88
2018-08-12T06:35:08.104Z,43.83
2018-08-12T06:35:39.282Z,44.00
2018-08-12T06:36:10.464Z,43.99
2018-08-12T06:36:41.608Z,43.71
2018-08-12T06:37:12.843Z,43.79
2018-08-12T06:37:44.057Z,44.10
2018-08-12T06:38:15.252Z,44.38
2018-08-12T06:38:46.480Z,44.23
2018-08-12T06:39:17.761Z,44.59
2018-08-12T06:39:48.966Z,45.23
2018-08-12T06:40:20.081Z,45.10
2018-08-12T06:40:51.247Z,45.11
2018-08-12T06:41:22.369Z,44.79
2018-08-12T06:41:53.488Z,44.85